Time;durP1;ratioP1;P1;durP2;ratioP2;P2;SDS_P1;SDS_P2;PMS_P1;PMS_P2;Temp;Humidity;BMP_temperature;BMP_pressure;BME280_temperature;BME280_humidity;BME280_pressure;Samples;Min_cycle;Max_cycle;Signal;HPM_P1;HPM_P2
2022/07/04 00:01:49;;;;;;;1.67;1.40;;;;;;;22.62;49.19;99633.13;4995930;28;20498;-77
2022/07/04 00:04:14;;;;;;;1.70;1.60;;;;;;;22.60;49.18;99644.03;5001736;28;20261;-77
2022/07/04 00:06:39;;;;;;;2.63;1.33;;;;;;;22.58;49.22;99653.22;4992458;28;20595;-77
2022/07/04 00:09:05;;;;;;;2.60;1.73;;;;;;;22.54;49.41;99642.00;5000013;28;20578;-77
2022/07/04 00:11:30;;;;;;;2.80;1.40;;;;;;;22.51;49.23;99631.66;5001487;28;20571;-77
2022/07/04 00:13:56;;;;;;;3.83;1.23;;;;;;;22.47;49.49;99625.00;5002951;28;20305;-77
2022/07/04 00:16:21;;;;;;;1.53;1.33;;;;;;;22.42;49.55;99638.06;4991561;28;20224;-77
2022/07/04 00:18:46;;;;;;;2.17;1.60;;;;;;;22.38;49.61;99640.22;4976912;28;20471;-77
2022/07/04 00:21:12;;;;;;;1.97;1.67;;;;;;;22.34;49.72;99643.44;4994634;28;20666;-77
2022/07/04 00:23:37;;;;;;;1.80;1.70;;;;;;;22.33;49.76;99637.25;4998247;28;20313;-77
2022/07/04 00:26:02;;;;;;;1.30;1.20;;;;;;;22.31;49.75;99642.78;4993125;28;20225;-77
2022/07/04 00:28:28;;;;;;;2.57;1.40;;;;;;;22.33;49.73;99639.91;4986948;28;20206;-77
2022/07/04 00:30:53;;;;;;;2.43;1.60;;;;;;;22.34;49.24;99632.75;4983244;28;20482;-77
2022/07/04 00:33:19;;;;;;;2.30;1.60;;;;;;;22.35;49.36;99631.72;4998148;28;20937;-77
2022/07/04 00:35:44;;;;;;;2.10;1.27;;;;;;;22.30;49.27;99638.44;4998813;28;20234;-77
2022/07/04 00:38:09;;;;;;;1.40;1.30;;;;;;;22.30;49.29;99648.28;4999032;28;20203;-77
2022/07/04 00:40:35;;;;;;;1.93;1.63;;;;;;;22.33;49.32;99660.50;5002037;28;20743;-77
2022/07/04 00:43:02;;;;;;;1.93;1.40;;;;;;;22.34;49.45;99664.84;5001336;28;20203;-77
2022/07/04 00:45:27;;;;;;;3.87;1.40;;;;;;;22.35;49.33;99663.84;4998369;28;20293;-77
2022/07/04 00:47:53;;;;;;;1.20;1.10;;;;;;;22.34;49.55;99667.53;4996859;28;20474;-77
2022/07/04 00:50:19;;;;;;;1.30;1.20;;;;;;;22.35;49.28;99674.53;5003446;28;20241;-77
2022/07/04 00:52:45;;;;;;;2.00;1.53;;;;;;;22.32;49.66;99673.03;4999811;28;20319;-77
2022/07/04 00:55:11;;;;;;;2.00;1.53;;;;;;;22.31;49.63;99674.06;5006073;28;21051;-77
2022/07/04 00:57:36;;;;;;;2.47;1.30;;;;;;;22.31;49.45;99674.91;5002020;28;20201;-76
2022/07/04 01:00:03;;;;;;;2.00;1.17;;;;;;;22.30;49.82;99680.41;5001985;28;20720;-76
2022/07/04 01:02:32;;;;;;;2.00;1.47;;;;;;;22.26;49.81;99674.56;5000520;28;20687;-77
2022/07/04 01:04:58;;;;;;;1.67;1.50;;;;;;;22.22;49.81;99675.06;5006119;28;20522;-77
2022/07/04 01:07:23;;;;;;;1.83;1.47;;;;;;;22.19;49.90;99678.94;5002734;28;20822;-77
2022/07/04 01:09:49;;;;;;;1.50;1.30;;;;;;;22.12;49.89;99685.13;4996470;28;20264;-77
2022/07/04 01:12:25;;;;;;;1.50;1.40;;;;;;;22.09;50.20;99678.28;5003328;28;20222;-76
2022/07/04 01:14:51;;;;;;;1.43;1.20;;;;;;;22.07;50.24;99685.63;5003981;28;20546;-77
2022/07/04 01:17:16;;;;;;;1.97;1.50;;;;;;;22.06;50.46;99682.13;5005791;28;20473;-77
2022/07/04 01:19:41;;;;;;;3.17;1.40;;;;;;;22.05;50.84;99675.09;4999973;28;20583;-77
2022/07/04 01:22:07;;;;;;;1.93;1.33;;;;;;;22.02;50.72;99672.75;4997537;28;20205;-77
2022/07/04 01:24:33;;;;;;;2.07;1.67;;;;;;;22.00;50.94;99673.91;5003221;28;20287;-76
2022/07/04 01:26:58;;;;;;;1.60;1.50;;;;;;;21.97;51.02;99684.97;5004919;28;20233;-77
2022/07/04 01:29:24;;;;;;;1.60;1.50;;;;;;;21.94;51.25;99683.47;5001454;28;20227;-77
2022/07/04 01:31:49;;;;;;;1.67;1.30;;;;;;;21.92;51.46;99682.78;4999260;28;20204;-77
2022/07/04 01:34:15;;;;;;;1.30;1.20;;;;;;;21.90;51.51;99686.63;4997910;28;20247;-77
2022/07/04 01:36:40;;;;;;;1.97;1.40;;;;;;;21.87;51.44;99693.16;4996836;28;20454;-77
2022/07/04 01:39:06;;;;;;;3.03;1.93;;;;;;;21.86;51.05;99703.03;4997815;28;20388;-77
2022/07/04 01:41:34;;;;;;;4.17;1.30;;;;;;;21.80;51.02;99698.34;4996146;28;20193;-77
2022/07/04 01:44:00;;;;;;;1.30;1.20;;;;;;;21.78;51.09;99695.00;4985955;28;21662;-77
2022/07/04 01:46:26;;;;;;;2.63;1.33;;;;;;;21.78;50.96;99688.81;4982189;28;20478;-77
2022/07/04 01:48:51;;;;;;;3.03;1.60;;;;;;;21.72;50.56;99694.84;4999564;28;20221;-77
2022/07/04 01:51:16;;;;;;;1.67;1.40;;;;;;;21.66;50.42;99683.00;5002935;28;20398;-77
2022/07/04 01:53:42;;;;;;;2.50;1.40;;;;;;;21.61;50.25;99688.00;5000661;28;20318;-77
2022/07/04 01:56:07;;;;;;;3.03;1.40;;;;;;;21.58;50.31;99688.34;5001896;28;20697;-77
2022/07/04 01:58:33;;;;;;;1.60;1.40;;;;;;;21.57;50.46;99697.34;5001745;28;20222;-77
2022/07/04 02:03:42;;;;;;;2.67;1.50;;;;;;;21.49;50.24;99700.00;5002650;28;20574;-76
2022/07/04 02:06:08;;;;;;;1.33;1.20;;;;;;;21.41;50.44;99704.38;5002742;28;20466;-77
2022/07/04 02:11:21;;;;;;;2.43;1.40;;;;;;;21.40;50.53;99715.19;5014485;28;20239;-77
2022/07/04 02:13:46;;;;;;;5.47;1.40;;;;;;;21.40;50.64;99712.53;5022903;28;20478;-77
2022/07/04 02:16:12;;;;;;;2.03;1.53;;;;;;;21.39;50.76;99719.72;5016143;28;20347;-76
2022/07/04 02:18:37;;;;;;;2.30;1.20;;;;;;;21.38;50.69;99723.38;5006188;28;20864;-76
2022/07/04 02:21:03;;;;;;;2.03;1.40;;;;;;;21.36;50.78;99725.38;5022241;28;20215;-77
2022/07/04 02:23:29;;;;;;;1.57;1.37;;;;;;;21.36;50.79;99735.19;5023006;28;20227;-77
2022/07/04 02:25:55;;;;;;;1.93;1.60;;;;;;;21.36;50.85;99736.06;5016119;28;20503;-77
2022/07/04 02:28:20;;;;;;;1.70;1.17;;;;;;;21.34;50.85;99743.38;5018109;28;20199;-77
2022/07/04 02:30:46;;;;;;;2.37;1.40;;;;;;;21.33;50.79;99747.06;5015702;28;20211;-77
2022/07/04 02:33:11;;;;;;;4.40;1.50;;;;;;;21.31;50.79;99745.56;5021824;28;20310;-77
2022/07/04 02:35:36;;;;;;;3.13;1.57;;;;;;;21.26;50.90;99742.53;5018367;28;21292;-77
2022/07/04 02:38:02;;;;;;;1.63;1.50;;;;;;;21.21;51.12;99740.34;5016838;28;20464;-77
2022/07/04 02:40:27;;;;;;;1.50;1.40;;;;;;;21.16;51.18;99754.19;5022874;28;20481;-77
2022/07/04 02:42:52;;;;;;;3.43;2.43;;;;;;;21.15;51.31;99744.50;5021632;28;20214;-77
2022/07/04 02:45:18;;;;;;;3.60;1.50;;;;;;;21.15;51.24;99736.50;5020187;28;20246;-77
2022/07/04 02:47:43;;;;;;;1.60;1.30;;;;;;;21.16;51.39;99731.97;4992455;28;20208;-77
2022/07/04 02:50:09;;;;;;;2.60;1.33;;;;;;;21.12;51.51;99731.47;5022712;28;20231;-77
2022/07/04 02:52:34;;;;;;;3.40;1.40;;;;;;;21.08;51.61;99723.94;5022565;28;20539;-77
2022/07/04 02:54:59;;;;;;;1.97;1.63;;;;;;;21.02;51.78;99729.94;5026488;28;20327;-77
2022/07/04 02:57:25;;;;;;;2.10;1.50;;;;;;;20.95;52.14;99735.06;5011857;28;20200;-77
2022/07/04 02:59:51;;;;;;;1.60;1.50;;;;;;;20.90;52.39;99727.56;5024361;28;20294;-77
2022/07/04 03:02:17;;;;;;;2.43;1.57;;;;;;;20.86;52.68;99741.41;5022067;28;20520;-77
2022/07/04 03:04:42;;;;;;;1.40;1.30;;;;;;;20.84;52.82;99744.22;5011119;28;20433;-77
2022/07/04 03:07:07;;;;;;;1.60;1.43;;;;;;;20.85;52.58;99745.06;5007600;28;20248;-77
2022/07/04 03:09:33;;;;;;;6.70;1.70;;;;;;;20.85;52.61;99745.91;5025374;28;20282;-77
2022/07/04 03:11:59;;;;;;;2.50;2.20;;;;;;;20.86;52.52;99744.06;5006924;28;20233;-77
2022/07/04 03:14:24;;;;;;;3.23;1.50;;;;;;;20.85;52.26;99740.56;5022138;28;20455;-77
2022/07/04 03:16:50;;;;;;;1.90;1.60;;;;;;;20.86;52.49;99747.56;5025899;28;20218;-77
2022/07/04 03:19:17;;;;;;;2.03;1.20;;;;;;;20.87;52.46;99743.06;5011452;28;20216;-77
2022/07/04 03:21:43;;;;;;;1.50;1.40;;;;;;;20.83;52.71;99742.56;5020039;28;20206;-77
2022/07/04 03:24:09;;;;;;;4.00;1.20;;;;;;;20.80;52.92;99745.53;5019816;28;20539;-77
2022/07/04 03:26:34;;;;;;;1.43;1.27;;;;;;;20.76;53.11;99741.50;5020320;28;20545;-77
2022/07/04 03:29:01;;;;;;;1.97;1.50;;;;;;;20.75;53.08;99739.84;5023989;28;20199;-77
2022/07/04 03:31:29;;;;;;;2.17;1.40;;;;;;;20.76;53.12;99749.53;5007819;28;20461;-77
2022/07/04 03:33:55;;;;;;;2.93;1.30;;;;;;;20.76;53.18;99744.19;5019460;28;20506;-77
2022/07/04 03:36:20;;;;;;;16.83;2.10;;;;;;;20.74;53.29;99732.84;5018972;28;20543;-77
2022/07/04 03:38:46;;;;;;;2.60;2.40;;;;;;;20.70;53.29;99726.16;5020694;28;20262;-77
2022/07/04 03:41:12;;;;;;;1.50;1.40;;;;;;;20.63;53.66;99725.09;5025023;28;20214;-77
2022/07/04 03:43:37;;;;;;;2.37;1.30;;;;;;;20.57;53.77;99721.22;5023195;28;20510;-77
2022/07/04 03:46:03;;;;;;;4.10;2.07;;;;;;;20.50;53.72;99721.00;5023867;28;20570;-77
2022/07/04 03:48:28;;;;;;;1.77;1.43;;;;;;;20.44;53.98;99721.66;5019078;28;20209;-77
2022/07/04 03:50:54;;;;;;;5.37;2.27;;;;;;;20.41;54.10;99726.44;5017492;28;20212;-77
2022/07/04 03:53:20;;;;;;;1.70;1.30;;;;;;;20.40;54.01;99722.13;5021864;28;20334;-77
2022/07/04 03:55:45;;;;;;;4.23;1.80;;;;;;;20.39;54.10;99717.75;5024700;28;20220;-76
2022/07/04 03:58:11;;;;;;;1.50;1.40;;;;;;;20.33;54.01;99724.56;5018897;28;20208;-77
2022/07/04 04:00:36;;;;;;;1.47;1.20;;;;;;;20.27;54.12;99725.22;5025847;28;20188;-77
2022/07/04 04:03:02;;;;;;;4.17;1.60;;;;;;;20.24;54.28;99722.84;5022248;28;20238;-77
2022/07/04 04:05:27;;;;;;;1.67;1.43;;;;;;;20.21;54.09;99715.19;5025742;28;20222;-77
2022/07/04 04:07:57;;;;;;;1.40;1.30;;;;;;;20.23;54.19;99726.53;5017923;28;20460;-77
2022/07/04 04:10:24;;;;;;;1.20;1.10;;;;;;;20.24;54.37;99736.19;5021333;28;20224;-77
2022/07/04 04:12:50;;;;;;;1.97;1.77;;;;;;;20.26;54.63;99750.22;5010609;28;20491;-77
2022/07/04 04:15:15;;;;;;;1.50;1.40;;;;;;;20.27;54.51;99750.03;5016999;28;20490;-77
2022/07/04 04:17:41;;;;;;;1.83;1.60;;;;;;;20.27;54.72;99746.53;5016626;28;20214;-77
2022/07/04 04:20:08;;;;;;;2.13;1.97;;;;;;;20.27;54.81;99763.38;5019153;28;20943;-77
2022/07/04 04:22:34;;;;;;;2.90;1.50;;;;;;;20.29;54.71;99756.06;5015710;28;20200;-77
2022/07/04 04:25:00;;;;;;;4.63;2.00;;;;;;;20.32;54.60;99760.25;5025784;28;20478;-77
2022/07/04 04:27:25;;;;;;;1.73;1.30;;;;;;;20.32;54.58;99760.25;5016528;28;20489;-77
2022/07/04 04:29:51;;;;;;;2.70;1.50;;;;;;;20.32;54.58;99760.25;5019161;28;20223;-76
2022/07/04 04:32:16;;;;;;;1.73;1.50;;;;;;;20.32;54.47;99765.59;5023112;28;20953;-77
2022/07/04 04:34:41;;;;;;;3.63;1.37;;;;;;;20.28;54.71;99770.41;5023046;28;20230;-77
2022/07/04 04:37:07;;;;;;;3.40;1.30;;;;;;;20.26;54.62;99772.38;5021676;28;20623;-77
2022/07/04 04:39:32;;;;;;;3.17;1.67;;;;;;;20.26;54.75;99771.56;5015193;28;20257;-77
2022/07/04 04:41:58;;;;;;;1.83;1.70;;;;;;;20.20;54.93;99778.34;5022202;28;20239;-77
2022/07/04 04:44:24;;;;;;;2.77;1.70;;;;;;;20.19;54.84;99787.34;5022526;28;20236;-78
2022/07/04 04:46:49;;;;;;;3.40;1.60;;;;;;;20.22;55.15;99791.53;5007207;28;20510;-77
2022/07/04 04:49:14;;;;;;;1.73;1.40;;;;;;;20.25;55.15;99794.72;5016411;28;20480;-77
2022/07/04 04:51:40;;;;;;;3.10;1.50;;;;;;;20.25;55.27;99813.41;5022263;28;20578;-77
2022/07/04 04:54:05;;;;;;;1.93;1.40;;;;;;;20.25;55.44;99833.88;5018289;28;20227;-77
2022/07/04 04:56:31;;;;;;;3.73;1.70;;;;;;;20.21;55.72;99837.88;5020917;28;20380;-77
2022/07/04 04:58:56;;;;;;;1.60;1.50;;;;;;;20.15;56.05;99857.16;5020832;28;20264;-77
2022/07/04 05:01:22;;;;;;;2.28;1.52;;;;;;;20.12;56.57;99863.63;5010211;28;20521;-77
2022/07/04 05:03:47;;;;;;;2.30;1.60;;;;;;;20.18;56.71;99864.84;5007764;28;20471;-78
2022/07/04 05:06:13;;;;;;;1.97;1.60;;;;;;;20.22;56.74;99855.53;5020770;28;21612;-77
2022/07/04 05:08:38;;;;;;;2.70;1.40;;;;;;;20.24;56.56;99838.38;5012219;28;20192;-78
2022/07/04 05:11:04;;;;;;;2.10;1.70;;;;;;;20.30;56.30;99828.94;4984467;28;20822;-78
2022/07/04 05:13:29;;;;;;;1.73;1.50;;;;;;;20.31;56.38;99838.63;5015641;28;20402;-77
2022/07/04 05:15:54;;;;;;;2.17;1.97;;;;;;;20.35;56.39;99829.31;5015457;28;20395;-77
2022/07/04 05:18:20;;;;;;;1.40;1.30;;;;;;;20.40;56.18;99829.69;5015432;28;20208;-77
2022/07/04 05:20:45;;;;;;;2.40;1.30;;;;;;;20.42;56.09;99841.03;5018844;28;20200;-78
2022/07/04 05:23:11;;;;;;;3.97;1.30;;;;;;;20.48;56.13;99827.06;5018689;28;20206;-78
2022/07/04 05:25:37;;;;;;;2.03;1.40;;;;;;;20.55;55.88;99820.16;5002896;28;20428;-77
2022/07/04 05:28:02;;;;;;;2.40;2.30;;;;;;;20.60;55.79;99811.66;5008355;28;20458;-78
2022/07/04 05:30:27;;;;;;;3.20;1.80;;;;;;;20.66;55.55;99810.22;5015261;28;20253;-78
2022/07/04 05:32:53;;;;;;;3.10;2.20;;;;;;;20.64;55.65;99798.84;5016107;28;20239;-78
2022/07/04 05:35:18;;;;;;;1.93;1.77;;;;;;;20.56;55.84;99796.97;5019091;28;20777;-79
2022/07/04 05:37:44;;;;;;;2.30;1.50;;;;;;;20.55;56.16;99792.63;5015609;28;20517;-78
2022/07/04 05:40:10;;;;;;;2.20;2.00;;;;;;;20.56;56.20;99794.28;5008634;28;20606;-79
2022/07/04 05:42:36;;;;;;;2.33;1.67;;;;;;;20.54;56.09;99777.59;5017612;28;20260;-78
2022/07/04 05:45:03;;;;;;;2.47;1.80;;;;;;;20.46;56.24;99765.00;5015405;28;21114;-78
2022/07/04 05:47:28;;;;;;;2.30;1.70;;;;;;;20.50;56.36;99758.38;5017518;28;20488;-79
2022/07/04 05:49:53;;;;;;;2.20;1.80;;;;;;;20.55;56.18;99749.94;5017924;28;20742;-77
2022/07/04 05:52:19;;;;;;;1.80;1.20;;;;;;;20.66;56.05;99748.81;5013275;28;20225;-78
2022/07/04 05:54:44;;;;;;;2.50;2.30;;;;;;;20.67;56.25;99745.16;5014466;28;20758;-78
2022/07/04 05:57:10;;;;;;;2.20;1.57;;;;;;;20.69;56.22;99740.50;5016415;28;20416;-78
2022/07/04 05:59:36;;;;;;;3.23;2.20;;;;;;;20.75;56.29;99737.19;5012963;28;20202;-78
2022/07/04 06:02:02;;;;;;;2.10;1.90;;;;;;;20.80;56.76;99734.03;5012613;28;20481;-78
2022/07/04 06:04:27;;;;;;;2.47;1.83;;;;;;;20.91;56.53;99739.91;5011059;28;20244;-78
2022/07/04 06:06:52;;;;;;;3.13;1.80;;;;;;;21.17;55.56;99753.19;5014526;28;20771;-78
2022/07/04 06:09:18;;;;;;;1.97;1.50;;;;;;;21.43;54.51;99754.94;5017618;28;20566;-78
2022/07/04 06:11:43;;;;;;;3.00;2.77;;;;;;;21.62;54.30;99756.50;5012550;28;20207;-78
2022/07/04 06:14:09;;;;;;;2.90;1.80;;;;;;;21.88;53.69;99751.00;5009430;28;20281;-78
2022/07/04 06:16:34;;;;;;;3.83;1.63;;;;;;;22.08;52.78;99755.00;5008242;28;20235;-78
2022/07/04 06:18:59;;;;;;;2.50;2.30;;;;;;;22.27;52.47;99750.31;5000944;28;20258;-77
2022/07/04 06:21:25;;;;;;;2.13;1.90;;;;;;;22.33;52.17;99754.16;5017677;28;20210;-78
2022/07/04 06:23:50;;;;;;;3.70;1.93;;;;;;;22.39;52.03;99754.34;5019518;28;20256;-78
2022/07/04 06:26:16;;;;;;;2.60;1.80;;;;;;;22.33;52.39;99763.00;5016495;28;20208;-78
2022/07/04 06:28:41;;;;;;;4.53;1.87;;;;;;;22.24;52.53;99761.38;5023916;28;20210;-77
2022/07/04 06:31:07;;;;;;;2.73;1.40;;;;;;;22.19;52.63;99767.22;5019321;28;20199;-77
2022/07/04 06:33:32;;;;;;;3.30;1.80;;;;;;;22.14;52.94;99772.19;5017902;28;20635;-77
2022/07/04 06:35:58;;;;;;;4.73;2.53;;;;;;;22.10;53.37;99774.38;5020014;28;20254;-77
2022/07/04 06:38:28;;;;;;;1.83;1.57;;;;;;;22.06;53.67;99772.22;5019295;28;20649;-78
2022/07/04 06:40:59;;;;;;;1.93;1.40;;;;;;;21.88;53.77;99783.09;5022224;28;20451;-77
2022/07/04 06:43:25;;;;;;;3.00;2.10;;;;;;;21.84;53.98;99787.09;5018937;28;20464;-78
2022/07/04 06:45:51;;;;;;;1.60;1.50;;;;;;;21.82;53.72;99789.94;5018088;28;20482;-77
2022/07/04 06:48:17;;;;;;;1.73;1.57;;;;;;;21.91;53.56;99792.63;5024021;28;20469;-79
2022/07/04 06:50:43;;;;;;;1.73;1.63;;;;;;;22.04;53.39;99783.09;5020915;28;20462;-77
2022/07/04 06:53:09;;;;;;;1.93;1.73;;;;;;;22.15;53.15;99779.25;5021314;28;20358;-78
2022/07/04 06:55:39;;;;;;;2.30;1.77;;;;;;;22.20;52.77;99778.78;5024382;28;20608;-78
2022/07/04 06:58:05;;;;;;;1.83;1.63;;;;;;;22.19;52.70;99777.09;5022012;28;20484;-77
2022/07/04 07:00:30;;;;;;;1.83;1.57;;;;;;;22.20;52.40;99789.47;5021006;28;20827;-78
2022/07/04 07:02:58;;;;;;;2.60;2.40;;;;;;;22.27;52.19;99793.13;5021624;28;20446;-78
2022/07/04 07:05:24;;;;;;;2.10;1.90;;;;;;;22.44;51.86;99788.59;5016978;28;20579;-77
2022/07/04 07:07:50;;;;;;;3.70;1.83;;;;;;;22.83;51.27;99795.88;5017963;28;20573;-78
2022/07/04 07:10:15;;;;;;;1.83;1.50;;;;;;;23.80;48.42;99794.59;5002167;28;20545;-78
2022/07/04 07:12:41;;;;;;;2.73;1.80;;;;;;;24.03;47.72;99797.28;5019289;28;20212;-78
2022/07/04 07:15:07;;;;;;;3.27;1.90;;;;;;;24.25;47.08;99802.81;5021798;28;20235;-77
2022/07/04 07:17:32;;;;;;;2.70;2.50;;;;;;;24.36;46.84;99805.06;5010967;28;20206;-77
2022/07/04 07:19:57;;;;;;;4.43;2.00;;;;;;;24.27;47.23;99800.75;5014653;28;20290;-77
2022/07/04 07:22:23;;;;;;;1.93;1.73;;;;;;;24.12;47.81;99802.59;5019305;28;20199;-78
2022/07/04 07:24:48;;;;;;;1.77;1.67;;;;;;;23.88;48.41;99801.75;5018084;28;20216;-77
2022/07/04 07:27:13;;;;;;;2.60;2.40;;;;;;;23.60;49.15;99799.56;5021403;28;20207;-77
2022/07/04 07:29:39;;;;;;;3.33;1.97;;;;;;;23.34;50.28;99810.59;5018831;28;20297;-78
2022/07/04 07:32:05;;;;;;;2.50;2.30;;;;;;;23.36;49.93;99807.75;5020159;28;20476;-77
2022/07/04 07:34:31;;;;;;;3.13;2.13;;;;;;;23.67;49.41;99804.22;5021893;28;20637;-78
2022/07/04 07:36:57;;;;;;;3.00;2.40;;;;;;;23.95;48.88;99794.69;5021058;28;20529;-77
2022/07/04 07:39:22;;;;;;;2.63;2.37;;;;;;;24.19;48.29;99798.97;5019384;28;20478;-77
2022/07/04 07:41:48;;;;;;;3.30;1.70;;;;;;;24.42;47.62;99790.91;5022625;28;20269;-77
2022/07/04 07:44:14;;;;;;;5.60;2.00;;;;;;;24.49;47.64;99791.00;5018365;28;20226;-77
2022/07/04 07:46:40;;;;;;;2.70;2.00;;;;;;;24.40;47.72;99787.56;5018540;28;20295;-78
2022/07/04 07:49:05;;;;;;;2.30;2.13;;;;;;;24.34;47.62;99788.28;5020489;28;20819;-77
2022/07/04 07:51:31;;;;;;;3.77;1.97;;;;;;;24.38;47.85;99784.22;5016689;28;21113;-78
2022/07/04 07:53:56;;;;;;;2.43;2.20;;;;;;;25.18;45.68;99782.72;5022998;28;20259;-78
2022/07/04 07:56:22;;;;;;;2.00;1.70;;;;;;;26.95;41.47;99772.06;5014008;28;20199;-77
2022/07/04 07:58:48;;;;;;;2.60;2.17;;;;;;;28.22;38.88;99763.25;5020396;28;20643;-77
2022/07/04 08:01:14;;;;;;;2.27;2.07;;;;;;;29.54;36.19;99761.22;5015282;28;20454;-77
2022/07/04 08:06:23;;;;;;;4.47;2.27;;;;;;;30.90;33.22;99745.25;5016891;28;20586;-77
2022/07/04 08:08:48;;;;;;;3.30;1.90;;;;;;;30.65;33.55;99735.28;5021109;28;20453;-79
2022/07/04 08:11:14;;;;;;;4.53;2.60;;;;;;;29.46;35.70;99745.22;5015277;28;20219;-78
2022/07/04 08:13:40;;;;;;;2.23;1.90;;;;;;;29.13;36.10;99739.97;5021347;28;20282;-77
2022/07/04 08:16:06;;;;;;;2.30;2.10;;;;;;;29.90;35.03;99727.22;5018793;28;20319;-77
2022/07/04 08:18:32;;;;;;;3.10;1.90;;;;;;;30.66;33.41;99719.84;5020996;28;20814;-77
2022/07/04 08:20:58;;;;;;;2.40;2.20;;;;;;;31.17;32.95;99723.22;5016237;28;20460;-78
2022/07/04 08:23:24;;;;;;;2.80;2.60;;;;;;;31.31;32.54;99713.81;5016049;28;20203;-77
2022/07/04 08:25:49;;;;;;;2.53;2.30;;;;;;;31.28;32.98;99708.84;5019160;28;20477;-77
2022/07/04 08:28:14;;;;;;;3.67;2.47;;;;;;;30.68;33.42;99708.75;5004536;28;20281;-77
2022/07/04 08:30:40;;;;;;;3.20;2.00;;;;;;;30.07;34.64;99700.41;5017008;28;20215;-77
2022/07/04 08:33:05;;;;;;;3.87;2.13;;;;;;;29.52;36.03;99706.44;5014960;28;20531;-78
2022/07/04 08:35:31;;;;;;;2.10;1.90;;;;;;;29.16;36.93;99706.25;5018542;28;20664;-76
2022/07/04 08:37:56;;;;;;;1.77;1.60;;;;;;;29.01;36.99;99710.06;5003340;28;20200;-78
2022/07/04 08:40:23;;;;;;;3.93;1.80;;;;;;;28.82;37.24;99695.56;5016851;28;20616;-77
2022/07/04 08:42:49;;;;;;;3.23;2.07;;;;;;;28.32;38.16;99703.38;5018126;28;20242;-78
2022/07/04 08:45:17;;;;;;;3.10;1.90;;;;;;;28.27;38.54;99705.06;5017885;28;20483;-78
2022/07/04 08:47:43;;;;;;;3.70;2.47;;;;;;;28.40;37.55;99700.44;5018291;28;20953;-77
2022/07/04 08:50:18;;;;;;;7.87;2.30;;;;;;;27.96;38.41;99718.19;5013686;28;20565;-79
2022/07/04 08:52:52;;;;;;;2.37;2.07;;;;;;;27.92;38.85;99711.56;5014980;28;21119;-77
2022/07/04 09:00:50;;;;;;;2.50;2.30;;;;;;;28.23;38.91;99712.75;5019942;28;20479;-77
2022/07/04 09:03:18;;;;;;;3.97;2.90;;;;;;;28.44;38.31;99717.13;5017935;28;20536;-77
2022/07/04 09:05:44;;;;;;;2.47;2.27;;;;;;;28.59;37.75;99714.97;5049360;23;20503;-78
2022/07/04 09:08:09;;;;;;;2.97;2.20;;;;;;;28.75;37.66;99716.38;4975954;28;20443;-78
2022/07/04 09:10:35;;;;;;;2.47;2.27;;;;;;;28.52;37.65;99727.69;4993110;28;20913;-79
2022/07/04 09:13:06;;;;;;;3.80;2.50;;;;;;;28.17;38.26;99727.94;4995736;28;20224;-78
2022/07/04 09:15:32;;;;;;;3.87;2.40;;;;;;;28.35;38.21;99723.75;4986662;28;20495;-79
2022/07/04 09:17:59;;;;;;;2.97;1.87;;;;;;;28.60;37.56;99710.44;4996649;28;21174;-79
2022/07/04 09:20:26;;;;;;;3.87;2.47;;;;;;;28.48;37.71;99709.41;4998478;28;20475;-78
2022/07/04 09:22:53;;;;;;;5.70;3.23;;;;;;;28.64;37.66;99715.19;4996033;28;20792;-78
2022/07/04 09:25:19;;;;;;;2.60;2.40;;;;;;;28.62;37.43;99705.63;4992896;28;20510;-78
2022/07/04 09:27:50;;;;;;;2.30;2.00;;;;;;;28.23;38.08;99710.88;4999141;28;20680;-78
2022/07/04 09:30:25;;;;;;;2.13;1.97;;;;;;;28.32;37.98;99706.09;4985876;28;20456;-78
2022/07/04 09:32:59;;;;;;;3.30;2.20;;;;;;;28.26;37.67;99715.03;4990883;28;20482;-78
2022/07/04 09:35:26;;;;;;;5.50;2.60;;;;;;;28.21;37.52;99709.44;4997223;28;20220;-78
2022/07/04 09:37:54;;;;;;;2.40;1.97;;;;;;;28.34;37.50;99701.31;5000889;28;20443;-78
2022/07/04 09:40:31;;;;;;;2.43;1.90;;;;;;;28.56;36.95;99695.66;4997802;28;20471;-78
2022/07/04 09:43:01;;;;;;;2.50;2.00;;;;;;;28.66;37.26;99710.41;4995224;28;20463;-78
2022/07/04 09:45:28;;;;;;;2.63;1.93;;;;;;;28.73;36.77;99714.94;4996626;28;20901;-78
2022/07/04 09:47:56;;;;;;;3.67;2.70;;;;;;;28.89;36.17;99715.31;4997499;28;20486;-76
2022/07/04 09:50:23;;;;;;;4.50;1.73;;;;;;;29.00;35.79;99719.22;4991687;28;20499;-76
2022/07/04 09:52:57;;;;;;;1.70;1.60;;;;;;;29.20;35.52;99727.25;4996719;28;20711;-77
2022/07/04 09:55:27;;;;;;;5.47;1.97;;;;;;;28.82;36.42;99721.78;4998129;28;20486;-77
2022/07/04 09:57:54;;;;;;;2.30;1.90;;;;;;;28.54;36.69;99724.78;5001270;28;20502;-78
2022/07/04 10:00:21;;;;;;;3.33;2.03;;;;;;;28.31;37.29;99720.63;4995789;28;20968;-76
2022/07/04 10:02:47;;;;;;;2.73;2.47;;;;;;;28.37;37.11;99714.38;4994770;28;20524;-79
2022/07/04 10:05:12;;;;;;;6.97;2.33;;;;;;;28.52;36.70;99706.09;4995835;28;20491;-77
2022/07/04 10:07:47;;;;;;;2.30;2.10;;;;;;;28.56;37.49;99695.66;4995581;28;20479;-76
2022/07/04 10:10:25;;;;;;;3.33;2.50;;;;;;;28.73;36.49;99707.66;4996446;28;20616;-78
2022/07/04 10:12:52;;;;;;;5.00;2.50;;;;;;;28.58;36.87;99704.41;4996380;28;20517;-78
2022/07/04 10:15:18;;;;;;;3.40;2.10;;;;;;;28.80;36.45;99713.06;4995977;28;20859;-77
2022/07/04 10:17:44;;;;;;;4.20;2.50;;;;;;;29.01;36.18;99710.06;4997947;28;20764;-76
2022/07/04 10:20:11;;;;;;;2.50;1.70;;;;;;;29.43;35.36;99696.91;4994974;28;20459;-77
2022/07/04 10:22:37;;;;;;;3.57;1.80;;;;;;;29.15;35.67;99699.19;4980866;28;20629;-79
2022/07/04 10:25:05;;;;;;;2.20;2.00;;;;;;;29.01;36.35;99698.41;4992193;28;20521;-78
2022/07/04 10:27:30;;;;;;;2.10;1.90;;;;;;;29.22;35.89;99692.72;4995875;28;20466;-77
2022/07/04 10:29:58;;;;;;;2.40;2.07;;;;;;;29.50;35.42;99696.91;4993999;28;20463;-76
2022/07/04 10:32:26;;;;;;;2.20;2.00;;;;;;;29.59;35.31;99695.56;4998316;28;20279;-76
2022/07/04 10:34:51;;;;;;;2.80;1.87;;;;;;;29.77;35.17;99698.38;4999095;28;20463;-76
2022/07/04 10:37:17;;;;;;;2.70;2.07;;;;;;;30.03;34.57;99704.63;4993680;28;20478;-77
2022/07/04 10:39:42;;;;;;;3.63;1.90;;;;;;;30.14;34.39;99703.91;4999293;28;20735;-77
2022/07/04 10:42:08;;;;;;;3.57;2.00;;;;;;;30.09;34.63;99695.59;4998943;28;20893;-77
2022/07/04 10:44:40;;;;;;;3.50;1.90;;;;;;;30.05;34.21;99699.78;4999772;28;20615;-76
2022/07/04 10:47:20;;;;;;;2.20;2.10;;;;;;;29.86;34.63;99703.50;4997135;28;20219;-77
2022/07/04 10:49:48;;;;;;;3.53;2.17;;;;;;;29.95;34.50;99689.47;4998655;28;20692;-77
2022/07/04 10:52:14;;;;;;;2.50;2.20;;;;;;;30.10;34.62;99693.72;4997879;28;20456;-78
2022/07/04 10:54:41;;;;;;;1.80;1.67;;;;;;;30.28;34.38;99698.38;4997523;28;20475;-76
2022/07/04 10:57:12;;;;;;;1.77;1.67;;;;;;;30.18;33.99;99688.84;4994448;28;20454;-77
2022/07/04 10:59:39;;;;;;;2.43;2.27;;;;;;;30.04;34.51;99689.19;4998201;28;20483;-78
2022/07/04 11:02:08;;;;;;;5.53;2.23;;;;;;;29.78;34.85;99694.59;4999363;28;20463;-78
2022/07/04 11:04:47;;;;;;;3.23;1.70;;;;;;;29.75;34.85;99689.63;4996143;28;20569;-76
2022/07/04 11:07:21;;;;;;;2.40;1.73;;;;;;;29.88;34.61;99687.88;4992011;28;20518;-76
2022/07/04 11:10:12;;;;;;;2.30;2.10;;;;;;;29.71;34.68;99695.72;4986626;28;20470;-79
2022/07/04 11:12:53;;;;;;;2.67;2.47;;;;;;;29.41;35.32;99684.66;4996227;28;20475;-79
2022/07/04 11:15:39;;;;;;;3.30;2.30;;;;;;;29.50;35.38;99677.94;4983426;28;21804;-77
2022/07/04 11:18:08;;;;;;;4.27;1.80;;;;;;;29.66;34.83;99676.63;5001699;28;20767;-77
2022/07/04 11:20:38;;;;;;;2.50;2.13;;;;;;;29.55;34.73;99683.53;5001257;28;20742;-78
2022/07/04 11:23:08;;;;;;;2.20;1.90;;;;;;;29.34;35.27;99671.19;4995890;28;20463;-78
2022/07/04 11:25:34;;;;;;;2.90;1.93;;;;;;;29.36;35.04;99674.50;5001744;28;20482;-81
2022/07/04 11:28:19;;;;;;;2.90;2.20;;;;;;;29.28;35.23;99672.06;4999683;28;20455;-79
2022/07/04 11:30:55;;;;;;;3.10;1.90;;;;;;;29.35;35.00;99664.72;5000007;28;20546;-77
2022/07/04 11:33:24;;;;;;;2.70;2.17;;;;;;;29.66;34.67;99658.47;5000651;28;20479;-82
2022/07/04 11:36:20;;;;;;;1.83;1.73;;;;;;;29.94;33.56;99660.72;5003479;28;20560;-77
2022/07/04 11:38:47;;;;;;;2.33;1.63;;;;;;;29.96;33.44;99666.75;4999288;28;20825;-79
2022/07/04 11:46:42;;;;;;;2.90;2.27;;;;;;;30.12;32.79;99661.81;5005145;28;20483;-80
2022/07/04 11:49:09;;;;;;;4.53;1.50;;;;;;;30.01;33.10;99660.69;5001889;28;20805;-77
2022/07/04 11:51:34;;;;;;;2.20;2.00;;;;;;;29.86;33.09;99652.06;4999416;28;20561;-78